sensor_id;sensor_type;location;lat;lon;timestamp;P1;durP1;ratioP1;P2;durP2;ratioP2
62030;SDS011;62035;52.094;5.112;2024-02-28T00:01:10;10.55;;;4.57;;
62030;SDS011;62035;52.094;5.112;2024-02-28T00:03:37;8.68;;;5.25;;
62030;SDS011;62035;52.094;5.112;2024-02-28T00:06:04;9.13;;;4.72;;
62030;SDS011;62035;52.094;5.112;2024-02-28T00:08:31;10.57;;;5.50;;
62030;SDS011;62035;52.094;5.112;2024-02-28T00:11:00;9.25;;;5.22;;
62030;SDS011;62035;52.094;5.112;2024-02-28T00:13:27;15.00;;;4.72;;
62030;SDS011;62035;52.094;5.112;2024-02-28T00:15:54;10.30;;;5.18;;
62030;SDS011;62035;52.094;5.112;2024-02-28T00:18:21;12.60;;;6.13;;
62030;SDS011;62035;52.094;5.112;2024-02-28T00:20:49;10.98;;;6.22;;
62030;SDS011;62035;52.094;5.112;2024-02-28T00:23:16;12.68;;;6.90;;
62030;SDS011;62035;52.094;5.112;2024-02-28T00:25:43;11.23;;;6.68;;
62030;SDS011;62035;52.094;5.112;2024-02-28T00:28:12;16.38;;;9.65;;
62030;SDS011;62035;52.094;5.112;2024-02-28T00:30:39;21.13;;;10.90;;
62030;SDS011;62035;52.094;5.112;2024-02-28T00:33:06;19.75;;;10.18;;
62030;SDS011;62035;52.094;5.112;2024-02-28T00:35:33;18.48;;;8.35;;
62030;SDS011;62035;52.094;5.112;2024-02-28T00:38:01;14.88;;;8.63;;
62030;SDS011;62035;52.094;5.112;2024-02-28T00:40:28;15.00;;;8.70;;
62030;SDS011;62035;52.094;5.112;2024-02-28T00:42:56;16.35;;;8.13;;
62030;SDS011;62035;52.094;5.112;2024-02-28T00:45:25;15.68;;;9.20;;
62030;SDS011;62035;52.094;5.112;2024-02-28T00:47:52;14.15;;;7.97;;
62030;SDS011;62035;52.094;5.112;2024-02-28T00:50:20;13.80;;;8.45;;
62030;SDS011;62035;52.094;5.112;2024-02-28T00:52:47;13.90;;;7.70;;
62030;SDS011;62035;52.094;5.112;2024-02-28T00:55:14;11.35;;;6.68;;
62030;SDS011;62035;52.094;5.112;2024-02-28T00:57:42;18.58;;;8.48;;
62030;SDS011;62035;52.094;5.112;2024-02-28T01:00:09;10.82;;;6.80;;
62030;SDS011;62035;52.094;5.112;2024-02-28T01:02:39;15.43;;;7.85;;
62030;SDS011;62035;52.094;5.112;2024-02-28T01:05:07;11.88;;;7.47;;
62030;SDS011;62035;52.094;5.112;2024-02-28T01:07:34;17.40;;;9.57;;
62030;SDS011;62035;52.094;5.112;2024-02-28T01:10:01;15.52;;;8.48;;
62030;SDS011;62035;52.094;5.112;2024-02-28T01:12:29;12.43;;;8.18;;
62030;SDS011;62035;52.094;5.112;2024-02-28T01:14:56;22.85;;;9.82;;
62030;SDS011;62035;52.094;5.112;2024-02-28T01:17:24;21.45;;;10.90;;
62030;SDS011;62035;52.094;5.112;2024-02-28T01:19:52;17.73;;;10.40;;
62030;SDS011;62035;52.094;5.112;2024-02-28T01:22:19;21.00;;;10.40;;
62030;SDS011;62035;52.094;5.112;2024-02-28T01:24:46;18.92;;;9.60;;
62030;SDS011;62035;52.094;5.112;2024-02-28T01:27:14;14.15;;;8.30;;
62030;SDS011;62035;52.094;5.112;2024-02-28T01:29:41;16.73;;;8.65;;
62030;SDS011;62035;52.094;5.112;2024-02-28T01:32:08;13.52;;;7.90;;
62030;SDS011;62035;52.094;5.112;2024-02-28T01:34:35;13.40;;;7.78;;
62030;SDS011;62035;52.094;5.112;2024-02-28T01:37:04;13.73;;;6.72;;
62030;SDS011;62035;52.094;5.112;2024-02-28T01:39:31;9.43;;;6.10;;
62030;SDS011;62035;52.094;5.112;2024-02-28T01:41:58;10.80;;;6.15;;
62030;SDS011;62035;52.094;5.112;2024-02-28T01:44:25;8.98;;;5.95;;
62030;SDS011;62035;52.094;5.112;2024-02-28T01:46:53;12.10;;;5.35;;
62030;SDS011;62035;52.094;5.112;2024-02-28T01:49:22;10.80;;;5.80;;
62030;SDS011;62035;52.094;5.112;2024-02-28T01:51:50;11.05;;;5.18;;
62030;SDS011;62035;52.094;5.112;2024-02-28T01:54:21;11.73;;;5.47;;
62030;SDS011;62035;52.094;5.112;2024-02-28T01:56:48;10.85;;;5.28;;
62030;SDS011;62035;52.094;5.112;2024-02-28T01:59:16;8.77;;;4.70;;
62030;SDS011;62035;52.094;5.112;2024-02-28T02:01:45;17.38;;;5.40;;
62030;SDS011;62035;52.094;5.112;2024-02-28T02:04:12;7.32;;;4.88;;
62030;SDS011;62035;52.094;5.112;2024-02-28T02:06:41;6.80;;;4.25;;
62030;SDS011;62035;52.094;5.112;2024-02-28T02:09:10;9.80;;;4.78;;
62030;SDS011;62035;52.094;5.112;2024-02-28T02:11:39;12.35;;;5.45;;
62030;SDS011;62035;52.094;5.112;2024-02-28T02:14:06;12.23;;;5.03;;
62030;SDS011;62035;52.094;5.112;2024-02-28T02:16:34;8.90;;;4.88;;
62030;SDS011;62035;52.094;5.112;2024-02-28T02:19:01;7.55;;;4.95;;
62030;SDS011;62035;52.094;5.112;2024-02-28T02:21:30;10.80;;;5.38;;
62030;SDS011;62035;52.094;5.112;2024-02-28T02:23:59;9.07;;;3.88;;
62030;SDS011;62035;52.094;5.112;2024-02-28T02:26:26;6.97;;;4.85;;
62030;SDS011;62035;52.094;5.112;2024-02-28T02:28:53;9.60;;;5.00;;
62030;SDS011;62035;52.094;5.112;2024-02-28T02:31:20;10.25;;;4.97;;
62030;SDS011;62035;52.094;5.112;2024-02-28T02:33:48;10.68;;;4.65;;
62030;SDS011;62035;52.094;5.112;2024-02-28T02:36:15;8.00;;;4.47;;
62030;SDS011;62035;52.094;5.112;2024-02-28T02:38:42;9.98;;;4.18;;
62030;SDS011;62035;52.094;5.112;2024-02-28T02:41:10;8.15;;;4.47;;
62030;SDS011;62035;52.094;5.112;2024-02-28T02:43:38;11.25;;;5.05;;
62030;SDS011;62035;52.094;5.112;2024-02-28T02:46:05;7.63;;;4.80;;
62030;SDS011;62035;52.094;5.112;2024-02-28T02:48:32;8.02;;;4.57;;
62030;SDS011;62035;52.094;5.112;2024-02-28T02:50:59;10.40;;;5.32;;
62030;SDS011;62035;52.094;5.112;2024-02-28T02:53:26;7.72;;;5.47;;
62030;SDS011;62035;52.094;5.112;2024-02-28T02:55:54;10.80;;;4.88;;
62030;SDS011;62035;52.094;5.112;2024-02-28T02:58:22;9.45;;;5.30;;
62030;SDS011;62035;52.094;5.112;2024-02-28T03:00:49;9.18;;;4.47;;
62030;SDS011;62035;52.094;5.112;2024-02-28T03:03:16;8.48;;;4.88;;
62030;SDS011;62035;52.094;5.112;2024-02-28T03:05:44;9.38;;;5.32;;
62030;SDS011;62035;52.094;5.112;2024-02-28T03:08:11;8.88;;;5.35;;
62030;SDS011;62035;52.094;5.112;2024-02-28T03:10:38;11.57;;;5.72;;
62030;SDS011;62035;52.094;5.112;2024-02-28T03:13:06;10.52;;;5.72;;
62030;SDS011;62035;52.094;5.112;2024-02-28T03:15:34;8.68;;;5.75;;
62030;SDS011;62035;52.094;5.112;2024-02-28T03:18:01;11.00;;;6.20;;
62030;SDS011;62035;52.094;5.112;2024-02-28T03:20:29;9.07;;;6.00;;
62030;SDS011;62035;52.094;5.112;2024-02-28T03:22:56;11.10;;;6.53;;
62030;SDS011;62035;52.094;5.112;2024-02-28T03:25:23;13.23;;;5.75;;
62030;SDS011;62035;52.094;5.112;2024-02-28T03:27:50;13.40;;;6.22;;
62030;SDS011;62035;52.094;5.112;2024-02-28T03:30:18;12.95;;;5.95;;
62030;SDS011;62035;52.094;5.112;2024-02-28T03:32:47;11.00;;;6.57;;
62030;SDS011;62035;52.094;5.112;2024-02-28T03:35:14;11.73;;;6.57;;
62030;SDS011;62035;52.094;5.112;2024-02-28T03:37:41;9.73;;;6.47;;
62030;SDS011;62035;52.094;5.112;2024-02-28T03:40:09;11.77;;;6.70;;
62030;SDS011;62035;52.094;5.112;2024-02-28T03:42:36;11.25;;;6.80;;
62030;SDS011;62035;52.094;5.112;2024-02-28T03:45:04;13.15;;;6.82;;
62030;SDS011;62035;52.094;5.112;2024-02-28T03:47:31;11.30;;;6.78;;
62030;SDS011;62035;52.094;5.112;2024-02-28T03:50:00;12.70;;;7.07;;
62030;SDS011;62035;52.094;5.112;2024-02-28T03:52:29;9.48;;;6.25;;
62030;SDS011;62035;52.094;5.112;2024-02-28T03:54:56;13.32;;;6.45;;
62030;SDS011;62035;52.094;5.112;2024-02-28T03:57:23;10.50;;;6.05;;
62030;SDS011;62035;52.094;5.112;2024-02-28T03:59:51;12.00;;;6.40;;
62030;SDS011;62035;52.094;5.112;2024-02-28T04:02:18;12.80;;;6.63;;
62030;SDS011;62035;52.094;5.112;2024-02-28T04:04:45;15.65;;;6.75;;
62030;SDS011;62035;52.094;5.112;2024-02-28T04:07:14;11.68;;;7.22;;
62030;SDS011;62035;52.094;5.112;2024-02-28T04:09:41;15.45;;;7.45;;
62030;SDS011;62035;52.094;5.112;2024-02-28T04:12:08;13.40;;;6.82;;
62030;SDS011;62035;52.094;5.112;2024-02-28T04:14:37;15.10;;;7.25;;
62030;SDS011;62035;52.094;5.112;2024-02-28T04:17:04;12.55;;;7.32;;
62030;SDS011;62035;52.094;5.112;2024-02-28T04:19:32;15.68;;;7.22;;
62030;SDS011;62035;52.094;5.112;2024-02-28T04:22:01;13.50;;;7.22;;
62030;SDS011;62035;52.094;5.112;2024-02-28T04:24:30;14.77;;;7.93;;
62030;SDS011;62035;52.094;5.112;2024-02-28T04:26:58;11.88;;;7.50;;
62030;SDS011;62035;52.094;5.112;2024-02-28T04:29:28;13.15;;;7.55;;
62030;SDS011;62035;52.094;5.112;2024-02-28T04:31:55;15.45;;;7.47;;
62030;SDS011;62035;52.094;5.112;2024-02-28T04:34:23;13.43;;;7.57;;
62030;SDS011;62035;52.094;5.112;2024-02-28T04:36:50;10.77;;;7.03;;
62030;SDS011;62035;52.094;5.112;2024-02-28T04:39:17;10.90;;;6.72;;
62030;SDS011;62035;52.094;5.112;2024-02-28T04:41:45;13.32;;;7.32;;
62030;SDS011;62035;52.094;5.112;2024-02-28T04:44:13;12.82;;;7.10;;
62030;SDS011;62035;52.094;5.112;2024-02-28T04:46:40;11.30;;;7.53;;
62030;SDS011;62035;52.094;5.112;2024-02-28T04:49:07;12.23;;;7.30;;
62030;SDS011;62035;52.094;5.112;2024-02-28T04:51:34;13.85;;;7.75;;
62030;SDS011;62035;52.094;5.112;2024-02-28T04:54:02;15.02;;;7.95;;
62030;SDS011;62035;52.094;5.112;2024-02-28T04:56:29;16.20;;;8.30;;
62030;SDS011;62035;52.094;5.112;2024-02-28T04:58:57;13.82;;;7.75;;
62030;SDS011;62035;52.094;5.112;2024-02-28T05:01:25;16.63;;;7.70;;
62030;SDS011;62035;52.094;5.112;2024-02-28T05:03:53;14.05;;;7.85;;
62030;SDS011;62035;52.094;5.112;2024-02-28T05:06:21;16.63;;;7.88;;
62030;SDS011;62035;52.094;5.112;2024-02-28T05:08:48;13.60;;;8.00;;
62030;SDS011;62035;52.094;5.112;2024-02-28T05:11:15;15.13;;;8.45;;
62030;SDS011;62035;52.094;5.112;2024-02-28T05:13:42;14.57;;;8.10;;
62030;SDS011;62035;52.094;5.112;2024-02-28T05:16:13;15.18;;;8.13;;
62030;SDS011;62035;52.094;5.112;2024-02-28T05:18:40;15.85;;;8.75;;
62030;SDS011;62035;52.094;5.112;2024-02-28T05:21:07;16.80;;;8.15;;
62030;SDS011;62035;52.094;5.112;2024-02-28T05:23:35;17.13;;;8.65;;
62030;SDS011;62035;52.094;5.112;2024-02-28T05:26:02;15.35;;;8.80;;
62030;SDS011;62035;52.094;5.112;2024-02-28T05:28:31;16.45;;;9.55;;
62030;SDS011;62035;52.094;5.112;2024-02-28T05:31:00;17.05;;;8.82;;
62030;SDS011;62035;52.094;5.112;2024-02-28T05:33:30;17.38;;;9.20;;
62030;SDS011;62035;52.094;5.112;2024-02-28T05:35:57;18.75;;;9.00;;
62030;SDS011;62035;52.094;5.112;2024-02-28T05:38:25;15.15;;;9.13;;
62030;SDS011;62035;52.094;5.112;2024-02-28T05:40:52;20.10;;;9.88;;
62030;SDS011;62035;52.094;5.112;2024-02-28T05:43:19;18.35;;;10.05;;
62030;SDS011;62035;52.094;5.112;2024-02-28T05:45:46;20.13;;;9.38;;
62030;SDS011;62035;52.094;5.112;2024-02-28T05:48:14;18.63;;;9.35;;
62030;SDS011;62035;52.094;5.112;2024-02-28T05:50:42;21.17;;;9.48;;
62030;SDS011;62035;52.094;5.112;2024-02-28T05:53:09;18.55;;;9.85;;
62030;SDS011;62035;52.094;5.112;2024-02-28T05:55:36;17.73;;;9.77;;
62030;SDS011;62035;52.094;5.112;2024-02-28T05:58:04;17.08;;;10.18;;
62030;SDS011;62035;52.094;5.112;2024-02-28T06:00:31;15.15;;;8.82;;
62030;SDS011;62035;52.094;5.112;2024-02-28T06:02:58;18.77;;;10.02;;
62030;SDS011;62035;52.094;5.112;2024-02-28T06:05:25;24.15;;;10.35;;
62030;SDS011;62035;52.094;5.112;2024-02-28T06:07:54;21.65;;;10.10;;
62030;SDS011;62035;52.094;5.112;2024-02-28T06:10:21;16.55;;;9.32;;
62030;SDS011;62035;52.094;5.112;2024-02-28T06:12:48;19.00;;;10.07;;
62030;SDS011;62035;52.094;5.112;2024-02-28T06:15:16;19.95;;;10.23;;
62030;SDS011;62035;52.094;5.112;2024-02-28T06:17:43;16.35;;;9.50;;
62030;SDS011;62035;52.094;5.112;2024-02-28T06:20:10;16.35;;;10.10;;
62030;SDS011;62035;52.094;5.112;2024-02-28T06:22:37;20.33;;;10.10;;
62030;SDS011;62035;52.094;5.112;2024-02-28T06:25:06;17.63;;;9.88;;
62030;SDS011;62035;52.094;5.112;2024-02-28T06:27:43;19.92;;;10.45;;
62030;SDS011;62035;52.094;5.112;2024-02-28T06:30:10;27.38;;;10.98;;
62030;SDS011;62035;52.094;5.112;2024-02-28T06:32:39;15.82;;;9.73;;
62030;SDS011;62035;52.094;5.112;2024-02-28T06:35:06;17.17;;;9.68;;
62030;SDS011;62035;52.094;5.112;2024-02-28T06:37:34;18.88;;;9.23;;
62030;SDS011;62035;52.094;5.112;2024-02-28T06:40:02;18.52;;;10.95;;
62030;SDS011;62035;52.094;5.112;2024-02-28T06:42:32;19.00;;;10.52;;
62030;SDS011;62035;52.094;5.112;2024-02-28T06:45:00;20.23;;;10.98;;
62030;SDS011;62035;52.094;5.112;2024-02-28T06:47:28;21.33;;;10.60;;
62030;SDS011;62035;52.094;5.112;2024-02-28T06:49:55;20.23;;;10.30;;
62030;SDS011;62035;52.094;5.112;2024-02-28T06:52:22;16.25;;;10.13;;
62030;SDS011;62035;52.094;5.112;2024-02-28T06:54:49;19.50;;;10.98;;
62030;SDS011;62035;52.094;5.112;2024-02-28T06:57:17;19.98;;;10.13;;
62030;SDS011;62035;52.094;5.112;2024-02-28T06:59:45;24.77;;;10.50;;
62030;SDS011;62035;52.094;5.112;2024-02-28T07:02:14;18.67;;;10.05;;
62030;SDS011;62035;52.094;5.112;2024-02-28T07:04:41;16.77;;;9.63;;
62030;SDS011;62035;52.094;5.112;2024-02-28T07:07:08;19.33;;;10.73;;
62030;SDS011;62035;52.094;5.112;2024-02-28T07:09:37;26.77;;;10.43;;
62030;SDS011;62035;52.094;5.112;2024-02-28T07:12:06;17.60;;;10.27;;
62030;SDS011;62035;52.094;5.112;2024-02-28T07:14:33;23.52;;;10.60;;
62030;SDS011;62035;52.094;5.112;2024-02-28T07:17:02;21.83;;;10.02;;
62030;SDS011;62035;52.094;5.112;2024-02-28T07:19:29;19.02;;;10.80;;
62030;SDS011;62035;52.094;5.112;2024-02-28T07:21:56;18.20;;;10.52;;
62030;SDS011;62035;52.094;5.112;2024-02-28T07:24:23;18.58;;;10.20;;
62030;SDS011;62035;52.094;5.112;2024-02-28T07:26:50;18.27;;;9.75;;
62030;SDS011;62035;52.094;5.112;2024-02-28T07:29:18;18.35;;;10.45;;
62030;SDS011;62035;52.094;5.112;2024-02-28T07:31:45;20.77;;;11.00;;
62030;SDS011;62035;52.094;5.112;2024-02-28T07:34:13;16.30;;;10.30;;
62030;SDS011;62035;52.094;5.112;2024-02-28T07:36:41;25.80;;;11.55;;
62030;SDS011;62035;52.094;5.112;2024-02-28T07:39:08;26.08;;;10.73;;
62030;SDS011;62035;52.094;5.112;2024-02-28T07:41:38;21.33;;;10.90;;
62030;SDS011;62035;52.094;5.112;2024-02-28T07:44:07;17.73;;;10.57;;
62030;SDS011;62035;52.094;5.112;2024-02-28T07:46:34;19.92;;;10.82;;
62030;SDS011;62035;52.094;5.112;2024-02-28T07:49:01;21.35;;;10.73;;
62030;SDS011;62035;52.094;5.112;2024-02-28T07:51:30;25.58;;;11.88;;
62030;SDS011;62035;52.094;5.112;2024-02-28T07:54:00;18.98;;;10.55;;
62030;SDS011;62035;52.094;5.112;2024-02-28T07:56:28;19.42;;;11.90;;
62030;SDS011;62035;52.094;5.112;2024-02-28T07:58:56;23.88;;;11.23;;
62030;SDS011;62035;52.094;5.112;2024-02-28T08:01:23;24.60;;;11.57;;
62030;SDS011;62035;52.094;5.112;2024-02-28T08:03:50;23.65;;;11.23;;
62030;SDS011;62035;52.094;5.112;2024-02-28T08:06:17;25.05;;;10.68;;
62030;SDS011;62035;52.094;5.112;2024-02-28T08:08:46;21.38;;;11.77;;
62030;SDS011;62035;52.094;5.112;2024-02-28T08:11:13;21.95;;;11.82;;
62030;SDS011;62035;52.094;5.112;2024-02-28T08:13:40;18.52;;;11.55;;
62030;SDS011;62035;52.094;5.112;2024-02-28T08:16:09;20.38;;;11.98;;
62030;SDS011;62035;52.094;5.112;2024-02-28T08:18:36;19.90;;;11.57;;
62030;SDS011;62035;52.094;5.112;2024-02-28T08:21:03;17.67;;;11.90;;
62030;SDS011;62035;52.094;5.112;2024-02-28T08:23:31;20.77;;;11.85;;
62030;SDS011;62035;52.094;5.112;2024-02-28T08:25:59;21.55;;;11.85;;
62030;SDS011;62035;52.094;5.112;2024-02-28T08:28:27;18.63;;;11.25;;
62030;SDS011;62035;52.094;5.112;2024-02-28T08:30:54;18.88;;;11.13;;
62030;SDS011;62035;52.094;5.112;2024-02-28T08:33:21;23.05;;;11.43;;
62030;SDS011;62035;52.094;5.112;2024-02-28T08:35:48;17.30;;;10.93;;
62030;SDS011;62035;52.094;5.112;2024-02-28T08:38:15;22.75;;;11.52;;
62030;SDS011;62035;52.094;5.112;2024-02-28T08:40:43;21.73;;;11.68;;
62030;SDS011;62035;52.094;5.112;2024-02-28T08:43:12;15.90;;;10.52;;
62030;SDS011;62035;52.094;5.112;2024-02-28T08:45:39;13.77;;;9.80;;
62030;SDS011;62035;52.094;5.112;2024-02-28T08:48:07;16.33;;;11.07;;
62030;SDS011;62035;52.094;5.112;2024-02-28T08:50:34;19.73;;;11.68;;
62030;SDS011;62035;52.094;5.112;2024-02-28T08:53:01;23.60;;;10.98;;
62030;SDS011;62035;52.094;5.112;2024-02-28T08:55:29;21.75;;;10.35;;
62030;SDS011;62035;52.094;5.112;2024-02-28T08:57:56;22.15;;;10.35;;
62030;SDS011;62035;52.094;5.112;2024-02-28T09:00:25;22.02;;;11.18;;
62030;SDS011;62035;52.094;5.112;2024-02-28T09:02:52;19.92;;;10.00;;
62030;SDS011;62035;52.094;5.112;2024-02-28T09:05:19;20.25;;;10.02;;
62030;SDS011;62035;52.094;5.112;2024-02-28T09:07:46;25.30;;;10.50;;
62030;SDS011;62035;52.094;5.112;2024-02-28T09:10:16;16.13;;;9.82;;
62030;SDS011;62035;52.094;5.112;2024-02-28T09:12:47;19.08;;;10.20;;
62030;SDS011;62035;52.094;5.112;2024-02-28T09:15:14;23.15;;;10.60;;
62030;SDS011;62035;52.094;5.112;2024-02-28T09:17:43;15.82;;;10.43;;
62030;SDS011;62035;52.094;5.112;2024-02-28T09:20:10;20.20;;;10.23;;
62030;SDS011;62035;52.094;5.112;2024-02-28T09:22:38;21.45;;;10.73;;
62030;SDS011;62035;52.094;5.112;2024-02-28T09:25:06;23.45;;;10.75;;
62030;SDS011;62035;52.094;5.112;2024-02-28T09:27:34;15.27;;;9.45;;
62030;SDS011;62035;52.094;5.112;2024-02-28T09:30:02;16.73;;;10.40;;
62030;SDS011;62035;52.094;5.112;2024-02-28T09:32:29;20.88;;;11.07;;
62030;SDS011;62035;52.094;5.112;2024-02-28T09:34:58;17.25;;;10.40;;
62030;SDS011;62035;52.094;5.112;2024-02-28T09:37:25;19.05;;;10.27;;
62030;SDS011;62035;52.094;5.112;2024-02-28T09:39:52;19.67;;;11.18;;
62030;SDS011;62035;52.094;5.112;2024-02-28T09:42:20;17.95;;;11.52;;
62030;SDS011;62035;52.094;5.112;2024-02-28T09:44:47;20.45;;;10.80;;
62030;SDS011;62035;52.094;5.112;2024-02-28T09:47:15;14.85;;;9.77;;
62030;SDS011;62035;52.094;5.112;2024-02-28T09:49:43;17.73;;;10.82;;
62030;SDS011;62035;52.094;5.112;2024-02-28T09:52:18;17.98;;;9.73;;
62030;SDS011;62035;52.094;5.112;2024-02-28T09:54:45;17.60;;;9.48;;
62030;SDS011;62035;52.094;5.112;2024-02-28T09:57:13;16.90;;;9.40;;
62030;SDS011;62035;52.094;5.112;2024-02-28T09:59:40;16.13;;;9.77;;
62030;SDS011;62035;52.094;5.112;2024-02-28T10:02:09;15.38;;;9.63;;
62030;SDS011;62035;52.094;5.112;2024-02-28T10:04:38;22.00;;;9.98;;
62030;SDS011;62035;52.094;5.112;2024-02-28T10:07:12;18.27;;;10.18;;
62030;SDS011;62035;52.094;5.112;2024-02-28T10:09:41;20.10;;;11.18;;
62030;SDS011;62035;52.094;5.112;2024-02-28T10:12:09;16.98;;;10.50;;
62030;SDS011;62035;52.094;5.112;2024-02-28T10:14:36;17.40;;;10.30;;
62030;SDS011;62035;52.094;5.112;2024-02-28T10:17:04;18.65;;;10.63;;
62030;SDS011;62035;52.094;5.112;2024-02-28T10:19:31;19.33;;;11.57;;
62030;SDS011;62035;52.094;5.112;2024-02-28T10:21:58;23.90;;;11.75;;
62030;SDS011;62035;52.094;5.112;2024-02-28T10:24:26;20.70;;;12.18;;
62030;SDS011;62035;52.094;5.112;2024-02-28T10:26:54;19.08;;;12.15;;
62030;SDS011;62035;52.094;5.112;2024-02-28T10:29:22;21.20;;;12.02;;
62030;SDS011;62035;52.094;5.112;2024-02-28T10:31:50;30.45;;;12.88;;
62030;SDS011;62035;52.094;5.112;2024-02-28T10:34:17;23.73;;;13.07;;
62030;SDS011;62035;52.094;5.112;2024-02-28T10:36:45;20.77;;;12.27;;
62030;SDS011;62035;52.094;5.112;2024-02-28T10:39:13;25.27;;;13.10;;
62030;SDS011;62035;52.094;5.112;2024-02-28T10:41:41;21.20;;;12.60;;
62030;SDS011;62035;52.094;5.112;2024-02-28T10:44:11;22.42;;;12.35;;
62030;SDS011;62035;52.094;5.112;2024-02-28T10:46:40;23.80;;;12.98;;
62030;SDS011;62035;52.094;5.112;2024-02-28T10:49:08;29.33;;;14.02;;
62030;SDS011;62035;52.094;5.112;2024-02-28T10:51:36;24.85;;;12.27;;
62030;SDS011;62035;52.094;5.112;2024-02-28T10:54:10;25.85;;;12.65;;
62030;SDS011;62035;52.094;5.112;2024-02-28T10:56:39;22.08;;;12.68;;
62030;SDS011;62035;52.094;5.112;2024-02-28T10:59:07;21.27;;;11.93;;
62030;SDS011;62035;52.094;5.112;2024-02-28T11:01:37;22.83;;;12.05;;
62030;SDS011;62035;52.094;5.112;2024-02-28T11:04:07;19.83;;;11.20;;
62030;SDS011;62035;52.094;5.112;2024-02-28T11:06:46;23.42;;;12.43;;
62030;SDS011;62035;52.094;5.112;2024-02-28T11:09:19;24.13;;;12.13;;
62030;SDS011;62035;52.094;5.112;2024-02-28T11:11:49;25.48;;;12.90;;
62030;SDS011;62035;52.094;5.112;2024-02-28T11:14:17;21.52;;;12.07;;
62030;SDS011;62035;52.094;5.112;2024-02-28T11:16:58;26.25;;;14.13;;
62030;SDS011;62035;52.094;5.112;2024-02-28T11:19:27;20.08;;;12.93;;
62030;SDS011;62035;52.094;5.112;2024-02-28T11:21:56;23.33;;;14.20;;
62030;SDS011;62035;52.094;5.112;2024-02-28T11:24:23;27.50;;;14.90;;
62030;SDS011;62035;52.094;5.112;2024-02-28T11:26:51;27.77;;;13.63;;
62030;SDS011;62035;52.094;5.112;2024-02-28T11:29:22;25.63;;;13.90;;
62030;SDS011;62035;52.094;5.112;2024-02-28T11:31:52;27.45;;;13.75;;
62030;SDS011;62035;52.094;5.112;2024-02-28T11:34:20;28.55;;;13.65;;
62030;SDS011;62035;52.094;5.112;2024-02-28T11:36:47;25.02;;;14.63;;
62030;SDS011;62035;52.094;5.112;2024-02-28T11:39:15;27.23;;;14.40;;
62030;SDS011;62035;52.094;5.112;2024-02-28T11:41:44;24.35;;;13.30;;
62030;SDS011;62035;52.094;5.112;2024-02-28T11:44:12;22.25;;;14.20;;
62030;SDS011;62035;52.094;5.112;2024-02-28T11:46:43;24.92;;;15.13;;
62030;SDS011;62035;52.094;5.112;2024-02-28T11:49:13;30.17;;;15.90;;
62030;SDS011;62035;52.094;5.112;2024-02-28T11:51:40;27.08;;;16.35;;
62030;SDS011;62035;52.094;5.112;2024-02-28T11:54:08;32.55;;;15.88;;
62030;SDS011;62035;52.094;5.112;2024-02-28T11:56:36;28.83;;;15.75;;
62030;SDS011;62035;52.094;5.112;2024-02-28T11:59:03;28.20;;;15.60;;
62030;SDS011;62035;52.094;5.112;2024-02-28T12:01:33;27.55;;;15.93;;
62030;SDS011;62035;52.094;5.112;2024-02-28T12:04:04;28.95;;;14.98;;
62030;SDS011;62035;52.094;5.112;2024-02-28T12:06:33;24.08;;;14.93;;
62030;SDS011;62035;52.094;5.112;2024-02-28T12:09:02;23.75;;;14.60;;
62030;SDS011;62035;52.094;5.112;2024-02-28T12:11:29;28.25;;;14.98;;
62030;SDS011;62035;52.094;5.112;2024-02-28T12:13:57;23.23;;;14.05;;
62030;SDS011;62035;52.094;5.112;2024-02-28T12:16:25;24.00;;;13.65;;
62030;SDS011;62035;52.094;5.112;2024-02-28T12:18:53;23.63;;;12.75;;
62030;SDS011;62035;52.094;5.112;2024-02-28T12:21:20;23.75;;;13.98;;
62030;SDS011;62035;52.094;5.112;2024-02-28T12:23:49;27.40;;;13.60;;
62030;SDS011;62035;52.094;5.112;2024-02-28T12:26:17;22.83;;;13.27;;
62030;SDS011;62035;52.094;5.112;2024-02-28T12:28:45;20.88;;;12.18;;
62030;SDS011;62035;52.094;5.112;2024-02-28T12:31:12;20.35;;;11.02;;
62030;SDS011;62035;52.094;5.112;2024-02-28T12:33:40;20.52;;;10.45;;
62030;SDS011;62035;52.094;5.112;2024-02-28T12:36:07;17.48;;;10.70;;
62030;SDS011;62035;52.094;5.112;2024-02-28T12:38:35;17.48;;;9.98;;
62030;SDS011;62035;52.094;5.112;2024-02-28T12:41:03;18.55;;;10.57;;
62030;SDS011;62035;52.094;5.112;2024-02-28T12:43:30;18.48;;;10.25;;
62030;SDS011;62035;52.094;5.112;2024-02-28T12:45:58;17.75;;;10.30;;
62030;SDS011;62035;52.094;5.112;2024-02-28T12:48:25;22.05;;;10.43;;
62030;SDS011;62035;52.094;5.112;2024-02-28T12:50:53;22.00;;;11.48;;
62030;SDS011;62035;52.094;5.112;2024-02-28T12:53:20;19.55;;;11.13;;
62030;SDS011;62035;52.094;5.112;2024-02-28T12:55:47;19.13;;;11.05;;
62030;SDS011;62035;52.094;5.112;2024-02-28T12:58:16;17.38;;;11.63;;
62030;SDS011;62035;52.094;5.112;2024-02-28T13:00:43;17.63;;;11.57;;
62030;SDS011;62035;52.094;5.112;2024-02-28T13:03:10;17.73;;;10.45;;
62030;SDS011;62035;52.094;5.112;2024-02-28T13:05:37;18.48;;;10.32;;
62030;SDS011;62035;52.094;5.112;2024-02-28T13:08:04;22.58;;;10.13;;
62030;SDS011;62035;52.094;5.112;2024-02-28T13:10:32;19.52;;;11.38;;
62030;SDS011;62035;52.094;5.112;2024-02-28T13:13:05;20.02;;;11.07;;
62030;SDS011;62035;52.094;5.112;2024-02-28T13:15:34;21.02;;;11.50;;
62030;SDS011;62035;52.094;5.112;2024-02-28T13:18:01;18.73;;;11.18;;
62030;SDS011;62035;52.094;5.112;2024-02-28T13:20:32;20.83;;;11.27;;
62030;SDS011;62035;52.094;5.112;2024-02-28T13:23:00;20.45;;;11.27;;
62030;SDS011;62035;52.094;5.112;2024-02-28T13:25:27;19.67;;;12.05;;
62030;SDS011;62035;52.094;5.112;2024-02-28T13:27:54;25.70;;;11.57;;
62030;SDS011;62035;52.094;5.112;2024-02-28T13:30:21;22.23;;;11.05;;
62030;SDS011;62035;52.094;5.112;2024-02-28T13:32:50;26.23;;;13.05;;
62030;SDS011;62035;52.094;5.112;2024-02-28T13:35:17;26.05;;;13.00;;
62030;SDS011;62035;52.094;5.112;2024-02-28T13:37:44;27.40;;;13.40;;
62030;SDS011;62035;52.094;5.112;2024-02-28T13:40:11;26.05;;;13.98;;
62030;SDS011;62035;52.094;5.112;2024-02-28T13:42:39;22.17;;;12.55;;
62030;SDS011;62035;52.094;5.112;2024-02-28T13:45:07;20.58;;;12.77;;
62030;SDS011;62035;52.094;5.112;2024-02-28T13:47:35;22.13;;;13.98;;
62030;SDS011;62035;52.094;5.112;2024-02-28T13:50:04;27.40;;;14.90;;
62030;SDS011;62035;52.094;5.112;2024-02-28T13:52:32;27.45;;;15.57;;
62030;SDS011;62035;52.094;5.112;2024-02-28T13:54:59;24.42;;;15.30;;
62030;SDS011;62035;52.094;5.112;2024-02-28T13:57:26;30.50;;;14.25;;
62030;SDS011;62035;52.094;5.112;2024-02-28T13:59:53;25.50;;;14.50;;
62030;SDS011;62035;52.094;5.112;2024-02-28T14:02:20;27.52;;;14.60;;
62030;SDS011;62035;52.094;5.112;2024-02-28T14:04:51;26.42;;;14.52;;
62030;SDS011;62035;52.094;5.112;2024-02-28T14:07:20;27.67;;;15.10;;
62030;SDS011;62035;52.094;5.112;2024-02-28T14:09:47;25.00;;;13.35;;
62030;SDS011;62035;52.094;5.112;2024-02-28T14:12:14;23.77;;;13.25;;
62030;SDS011;62035;52.094;5.112;2024-02-28T14:14:41;22.38;;;12.70;;
62030;SDS011;62035;52.094;5.112;2024-02-28T14:17:09;24.52;;;13.95;;
62030;SDS011;62035;52.094;5.112;2024-02-28T14:19:36;22.65;;;14.07;;
62030;SDS011;62035;52.094;5.112;2024-02-28T14:22:03;23.55;;;14.05;;
62030;SDS011;62035;52.094;5.112;2024-02-28T14:24:32;22.67;;;12.50;;
62030;SDS011;62035;52.094;5.112;2024-02-28T14:26:59;20.63;;;12.20;;
62030;SDS011;62035;52.094;5.112;2024-02-28T14:29:26;20.73;;;12.35;;
62030;SDS011;62035;52.094;5.112;2024-02-28T14:31:55;19.23;;;11.38;;